Time;durP1;ratioP1;P1;durP2;ratioP2;P2;SDS_P1;SDS_P2;PMS_P1;PMS_P2;Temp;Humidity;BMP_temperature;BMP_pressure;BME280_temperature;BME280_humidity;BME280_pressure;Samples;Min_cycle;Max_cycle;Signal;HPM_P1;HPM_P2
2021/12/15 00:01:25;;;;;;;;;;;0.10;2201.60;;;;;;4756201;30;20357;-58
2021/12/15 00:03:51;;;;;;;;;;;0.10;2201.60;;;;;;4755955;30;19917;-58
2021/12/15 00:06:19;;;;;;;;;;;0.00;2201.60;;;;;;4755867;30;19921;-58
2021/12/15 00:08:49;;;;;;;;;;;0.00;2201.60;;;;;;4755952;30;19916;-58
2021/12/15 00:11:16;;;;;;;;;;;12.90;2201.60;;;;;;4756146;30;20368;-58
2021/12/15 00:13:43;;;;;;;;;;;12.90;2201.60;;;;;;4755826;30;19917;-58
2021/12/15 00:16:09;;;;;;;;;;;13.00;2201.60;;;;;;4756108;30;19936;-58
2021/12/15 00:18:35;;;;;;;;;;;13.10;2201.60;;;;;;4755799;30;19927;-58
2021/12/15 00:21:03;;;;;;;;;;;13.20;2201.60;;;;;;4755912;30;19918;-58
2021/12/15 00:23:29;;;;;;;;;;;13.30;2201.60;;;;;;4739759;30;19910;-58
2021/12/15 00:25:55;;;;;;;;;;;13.30;2201.60;;;;;;4755668;30;20005;-58
2021/12/15 00:28:21;;;;;;;;;;;;;;;;;;4755561;30;19965;-58
2021/12/15 00:30:47;;;;;;;;;;;;;;;;;;4755328;30;19922;-58
2021/12/15 00:33:13;;;;;;;;;;;;;;;;;;4756380;30;19960;-59
2021/12/15 00:35:39;;;;;;;;;;;;;;;;;;4755471;30;19960;-58
2021/12/15 00:38:05;;;;;;;;;;;;;;;;;;4755727;30;19942;-58
2021/12/15 00:40:31;;;;;;;;;;;;;;;;;;4755363;30;20497;-58
2021/12/15 00:42:58;;;;;;;;;;;;;;;;;;4755980;30;20469;-58
2021/12/15 00:45:24;;;;;;;;;;;;;;;;;;4755321;30;20375;-58
2021/12/15 00:47:50;;;;;;;;;;;;;;;;;;4755817;30;20356;-59
2021/12/15 00:50:16;;;;;;;;;;;;;;;;;;4755303;30;19910;-58
2021/12/15 00:52:42;;;;;;;;;;;;;;;;;;4755474;30;19910;-58
2021/12/15 00:55:08;;;;;;;;;;;;;;;;;;4755144;30;20356;-58
2021/12/15 00:57:34;;;;;;;;;;;;;;;;;;4755410;30;19910;-58
2021/12/15 01:00:00;;;;;;;;;;;;;;;;;;4755278;30;19910;-58
2021/12/15 01:02:26;;;;;;;;;;;;;;;;;;4755090;30;19910;-59
2021/12/15 01:04:52;;;;;;;;;;;;;;;;;;4755046;30;19918;-59
2021/12/15 01:07:18;;;;;;;;;;;;;;;;;;4755030;30;19916;-58
2021/12/15 01:09:46;;;;;;;;;;;;;;;;;;4754900;30;19910;-58
2021/12/15 01:12:20;;;;;;;;;;;;;;;;;;4755272;30;19910;-59
2021/12/15 01:20:15;;;;;;;;;;;;;;;;;;4755018;30;19921;-58
2021/12/15 01:22:41;;;;;;;;;;;;;;;;;;4739059;30;19914;-58
2021/12/15 01:25:07;;;;;;;;;;;;;;;;;;4754973;30;19914;-59
2021/12/15 01:27:33;;;;;;;;;;;;;;;;;;4754595;30;20288;-58
2021/12/15 01:29:59;;;;;;;;;;;;;;;;;;4754409;30;19929;-58
2021/12/15 01:32:25;;;;;;;;;;;;;;;;;;4755060;30;19910;-58
2021/12/15 01:34:51;;;;;;;;;;;;;;;;;;4754535;30;19917;-59
2021/12/15 01:37:17;;;;;;;;;;;;;;;;;;4754478;30;19960;-58
2021/12/15 01:39:43;;;;;;;;;;;;;;;;;;4754296;30;19965;-58
2021/12/15 01:42:09;;;;;;;;;;;;;;;;;;4754638;30;19956;-58
2021/12/15 01:47:20;;;;;;;;;;;0.30;2201.60;;;;;;4754642;30;19966;-58
2021/12/15 01:49:47;;;;;;;;;;;0.30;2201.60;;;;;;4754030;30;19914;-58
2021/12/15 01:52:24;;;;;;;;;;;0.10;2201.60;;;;;;4754189;30;20026;-58
2021/12/15 01:54:52;;;;;;;;;;;0.20;2201.60;;;;;;4754071;30;19910;-58
2021/12/15 01:57:18;;;;;;;;;;;;;;;;;;4754350;30;20361;-58
2021/12/15 01:59:44;;;;;;;;;;;;;;;;;;4754747;30;19925;-59
2021/12/15 02:02:10;;;;;;;;;;;0.50;2201.60;;;;;;4753961;30;20032;-58
2021/12/15 02:04:36;;;;;;;;;;;;;;;;;;4753953;30;20059;-58
2021/12/15 02:07:04;;;;;;;;;;;0.60;2201.60;;;;;;4754250;30;19945;-58
2021/12/15 02:10:15;;;;;;;;;;;0.50;2201.60;;;;;;4754229;30;19914;-58
2021/12/15 02:12:19;;;;;;;;;;;0.50;2201.60;;;;;;4747410;30;20387;-58
2021/12/15 02:14:46;;;;;;;;;;;0.40;2201.60;;;;;;4753799;30;19910;-58
2021/12/15 02:17:11;;;;;;;;;;;0.50;2201.60;;;;;;4753781;30;19961;-58
2021/12/15 02:19:37;;;;;;;;;;;0.60;2201.60;;;;;;4753665;30;20335;-59
2021/12/15 02:22:03;;;;;;;;;;;0.50;2201.60;;;;;;4753568;30;19925;-58
2021/12/15 02:24:33;;;;;;;;;;;0.60;2201.60;;;;;;4753630;30;19917;-58
2021/12/15 02:27:00;;;;;;;;;;;0.60;2201.60;;;;;;4753942;30;19917;-58
2021/12/15 02:29:30;;;;;;;;;;;0.60;2201.60;;;;;;4753692;30;20416;-58
2021/12/15 02:32:06;;;;;;;;;;;0.80;2201.60;;;;;;4753643;30;19914;-58
2021/12/15 02:34:55;;;;;;;;;;;0.80;2201.60;;;;;;4753513;30;19914;-58
2021/12/15 02:37:19;;;;;;;;;;;0.90;2201.60;;;;;;4753294;30;19910;-58
2021/12/15 02:39:44;;;;;;;;;;;0.90;2201.60;;;;;;4753381;30;19910;-58
2021/12/15 02:42:10;;;;;;;;;;;25.60;2201.60;;;;;;4753427;30;19921;-58
2021/12/15 02:44:41;;;;;;;;;;;25.60;2201.60;;;;;;4753460;30;19951;-58
2021/12/15 02:47:07;;;;;;;;;;;25.60;2201.60;;;;;;4753356;30;19910;-60
2021/12/15 02:49:33;;;;;;;;;;;25.60;2201.60;;;;;;4753350;30;19911;-58
2021/12/15 02:51:59;;;;;;;;;;;25.70;2201.60;;;;;;4753336;30;20303;-59
2021/12/15 02:54:26;;;;;;;;;;;25.70;2201.60;;;;;;4753236;30;19910;-59
2021/12/15 02:56:53;;;;;;;;;;;25.70;2201.60;;;;;;4753465;30;19917;-58
2021/12/15 02:59:24;;;;;;;;;;;25.70;2201.60;;;;;;4753391;30;19914;-59
2021/12/15 03:02:01;;;;;;;;;;;25.60;2201.60;;;;;;4752468;30;20376;-59
2021/12/15 03:04:48;;;;;;;;;;;25.60;2201.60;;;;;;4753447;30;20249;-59
2021/12/15 03:07:27;;;;;;;;;;;25.60;2201.60;;;;;;4753135;30;20276;-58
2021/12/15 03:15:33;;;;;;;;;;;25.70;2201.60;;;;;;4753403;30;19972;-59
2021/12/15 03:17:59;;;;;;;;;;;25.80;2201.60;;;;;;4753342;30;20264;-59
2021/12/15 03:20:25;;;;;;;;;;;25.80;2201.60;;;;;;4752973;30;19924;-59
2021/12/15 03:22:52;;;;;;;;;;;25.80;2201.60;;;;;;4752984;30;20374;-58
2021/12/15 03:25:17;;;;;;;;;;;25.80;2201.60;;;;;;4753233;30;19952;-58
2021/12/15 03:33:37;;;;;;;;;;;25.80;2201.60;;;;;;4715930;30;20036;-58
2021/12/15 03:36:10;;;;;;;;;;;25.80;2201.60;;;;;;4747441;30;19911;-58
2021/12/15 03:38:37;;;;;;;;;;;25.70;2201.60;;;;;;4753594;30;20004;-58
2021/12/15 03:41:04;;;;;;;;;;;25.80;2201.60;;;;;;4752742;30;19918;-59
2021/12/15 03:43:31;;;;;;;;;;;25.70;2201.60;;;;;;4753099;30;19937;-58
2021/12/15 03:46:02;;;;;;;;;;;25.70;2201.60;;;;;;4752808;30;19997;-58
2021/12/15 03:48:30;;;;;;;;;;;25.80;2201.60;;;;;;4752725;30;19941;-59
2021/12/15 03:50:57;;;;;;;;;;;25.80;2201.60;;;;;;4752877;30;19967;-58
2021/12/15 03:53:23;;;;;;;;;;;25.80;2201.60;;;;;;4752826;30;19961;-58
2021/12/15 03:55:49;;;;;;;;;;;25.80;2201.60;;;;;;4753025;30;19918;-58
2021/12/15 03:58:16;;;;;;;;;;;25.80;2201.60;;;;;;4752836;30;19910;-59
2021/12/15 04:00:43;;;;;;;;;;;25.80;2201.60;;;;;;4752595;30;19925;-59
2021/12/15 04:03:20;;;;;;;;;;;25.80;2201.60;;;;;;4752961;30;19910;-58
2021/12/15 04:05:46;;;;;;;;;;;25.80;2201.60;;;;;;4752645;30;19917;-59
2021/12/15 04:08:12;;;;;;;;;;;25.70;2201.60;;;;;;4752689;30;20284;-59
2021/12/15 04:10:38;;;;;;;;;;;25.80;2201.60;;;;;;4736784;30;19914;-58
2021/12/15 04:13:04;;;;;;;;;;;25.80;2201.60;;;;;;4753692;30;19910;-58
2021/12/15 04:15:40;;;;;;;;;;;25.80;2201.60;;;;;;4756315;30;19914;-59
2021/12/15 04:18:07;;;;;;;;;;;25.80;2201.60;;;;;;4756146;30;20284;-59
2021/12/15 04:20:33;;;;;;;;;;;25.70;2201.60;;;;;;4755687;30;20049;-58
2021/12/15 04:22:59;;;;;;;;;;;25.70;2201.60;;;;;;4755999;30;19933;-58
2021/12/15 04:25:26;;;;;;;;;;;25.70;2201.60;;;;;;4755908;30;20360;-59
2021/12/15 04:27:59;;;;;;;;;;;25.60;2201.60;;;;;;4755628;30;20320;-58
2021/12/15 04:30:26;;;;;;;;;;;25.60;2201.60;;;;;;4755459;30;19922;-58
2021/12/15 04:32:53;;;;;;;;;;;25.60;2201.60;;;;;;4755837;30;19910;-58
2021/12/15 04:35:19;;;;;;;;;;;25.60;2201.60;;;;;;4755465;30;19910;-59
2021/12/15 04:37:45;;;;;;;;;;;25.60;2201.60;;;;;;4755489;30;19917;-58
2021/12/15 04:40:12;;;;;;;;;;;25.70;2201.60;;;;;;4755391;30;20059;-58
2021/12/15 04:42:39;;;;;;;;;;;25.60;2201.60;;;;;;4755337;30;19954;-58
2021/12/15 04:45:05;;;;;;;;;;;25.70;2201.60;;;;;;4755309;30;20406;-58
2021/12/15 04:47:31;;;;;;;;;;;25.70;2201.60;;;;;;4755246;30;19978;-58
2021/12/15 04:49:58;;;;;;;;;;;25.80;2201.60;;;;;;4755569;30;19914;-58
2021/12/15 04:52:25;;;;;;;;;;;25.80;2201.60;;;;;;4755806;30;20356;-58
2021/12/15 04:54:51;;;;;;;;;;;25.70;2201.60;;;;;;4755137;30;19910;-58
2021/12/15 04:57:18;;;;;;;;;;;25.70;2201.60;;;;;;4755122;30;19959;-59
2021/12/15 04:59:44;;;;;;;;;;;25.70;2201.60;;;;;;4755088;30;19911;-58
2021/12/15 05:02:10;;;;;;;;;;;25.70;2201.60;;;;;;4755003;30;19968;-59
2021/12/15 05:04:36;;;;;;;;;;;25.80;2201.60;;;;;;4755076;30;19910;-58
2021/12/15 05:07:02;;;;;;;;;;;25.70;2201.60;;;;;;4754972;30;20004;-59
2021/12/15 05:09:28;;;;;;;;;;;25.70;2201.60;;;;;;4754949;30;20006;-59
2021/12/15 05:11:54;;;;;;;;;;;25.70;2201.60;;;;;;4755223;30;19910;-58
2021/12/15 05:14:20;;;;;;;;;;;25.70;2201.60;;;;;;4755067;30;19910;-59
2021/12/15 05:16:46;;;;;;;;;;;25.70;2201.60;;;;;;4754851;30;19909;-58
2021/12/15 05:19:12;;;;;;;;;;;25.70;2201.60;;;;;;4754719;30;19910;-58
2021/12/15 05:21:38;;;;;;;;;;;25.70;2201.60;;;;;;4754650;30;19925;-58
2021/12/15 05:24:13;;;;;;;;;;;25.70;2201.60;;;;;;4754104;30;19910;-59
2021/12/15 05:26:39;;;;;;;;;;;25.80;2201.60;;;;;;4754885;30;19910;-58
2021/12/15 05:29:05;;;;;;;;;;;25.80;2201.60;;;;;;4754876;30;20352;-58
2021/12/15 05:31:31;;;;;;;;;;;25.80;2201.60;;;;;;4754422;30;20411;-58
2021/12/15 05:33:57;;;;;;;;;;;25.80;2201.60;;;;;;4754862;30;19958;-58
2021/12/15 05:36:22;;;;;;;;;;;25.80;2201.60;;;;;;4754725;30;20272;-58
2021/12/15 05:38:48;;;;;;;;;;;25.80;2201.60;;;;;;4754501;30;19932;-58
2021/12/15 05:41:15;;;;;;;;;;;25.80;2201.60;;;;;;4754254;30;20399;-58
2021/12/15 05:43:41;;;;;;;;;;;25.70;2201.60;;;;;;4754476;30;20334;-58
2021/12/15 05:46:06;;;;;;;;;;;25.70;2201.60;;;;;;4754371;30;19960;-59
2021/12/15 05:48:32;;;;;;;;;;;25.70;2201.60;;;;;;4754455;30;19910;-58
2021/12/15 05:50:58;;;;;;;;;;;25.70;2201.60;;;;;;4754209;30;19933;-58
2021/12/15 05:53:23;;;;;;;;;;;25.60;2201.60;;;;;;4754190;30;19967;-59
2021/12/15 05:55:50;;;;;;;;;;;25.60;2201.60;;;;;;4754151;30;19968;-59
2021/12/15 05:58:15;;;;;;;;;;;25.60;2201.60;;;;;;4754442;30;19910;-58
2021/12/15 06:00:42;;;;;;;;;;;25.60;2201.60;;;;;;4753966;30;20349;-58
2021/12/15 06:03:08;;;;;;;;;;;25.70;2201.60;;;;;;4754146;30;19918;-58
2021/12/15 06:05:34;;;;;;;;;;;25.70;2201.60;;;;;;4754247;30;19910;-58
2021/12/15 06:08:00;;;;;;;;;;;25.80;2201.60;;;;;;4754227;30;19993;-58
2021/12/15 06:10:27;;;;;;;;;;;25.80;2201.60;;;;;;4738089;30;20413;-58
2021/12/15 06:12:55;;;;;;;;;;;25.80;2201.60;;;;;;4753836;30;19910;-58
2021/12/15 06:15:23;;;;;;;;;;;25.80;2201.60;;;;;;4753856;30;20280;-58
2021/12/15 06:17:57;;;;;;;;;;;25.70;2201.60;;;;;;4753821;30;19917;-58
2021/12/15 06:20:23;;;;;;;;;;;25.70;2201.60;;;;;;4753668;30;19925;-58
2021/12/15 06:22:52;;;;;;;;;;;25.70;2201.60;;;;;;4737897;30;20292;-58
2021/12/15 06:25:18;;;;;;;;;;;25.60;2201.60;;;;;;4753650;30;19967;-58
2021/12/15 06:27:43;;;;;;;;;;;0.90;2201.60;;;;;;4753995;30;20018;-58
2021/12/15 06:30:09;;;;;;;;;;;25.60;2201.60;;;;;;4753467;30;19922;-58
2021/12/15 06:32:35;;;;;;;;;;;25.60;2201.60;;;;;;4753613;30;19910;-59
2021/12/15 06:35:02;;;;;;;;;;;0.90;2201.60;;;;;;4753558;30;20269;-58
2021/12/15 06:37:28;;;;;;;;;;;0.80;2201.60;;;;;;4753435;30;19921;-58
2021/12/15 06:39:53;;;;;;;;;;;0.90;2201.60;;;;;;4753457;30;20001;-59
2021/12/15 06:42:19;;;;;;;;;;;0.90;2201.60;;;;;;4753319;30;19922;-58
2021/12/15 06:44:46;;;;;;;;;;;25.60;2201.60;;;;;;4753649;30;19910;-58
2021/12/15 07:00:31;;;;;;;;;;;0.60;2201.60;;;;;;4753664;30;19918;-59
2021/12/15 07:02:57;;;;;;;;;;;0.50;2201.60;;;;;;4753154;30;19915;-58
2021/12/15 07:05:24;;;;;;;;;;;0.60;2201.60;;;;;;4753167;30;19910;-58
2021/12/15 07:07:50;;;;;;;;;;;0.60;2201.60;;;;;;4753170;30;19967;-58
2021/12/15 07:10:19;;;;;;;;;;;0.50;2201.60;;;;;;4753131;30;19917;-59
2021/12/15 07:12:44;;;;;;;;;;;0.50;2201.60;;;;;;4753095;30;20395;-58
2021/12/15 07:15:11;;;;;;;;;;;0.40;2201.60;;;;;;4753038;30;19910;-58
2021/12/15 07:17:39;;;;;;;;;;;0.30;2201.60;;;;;;4753355;30;19910;-59
2021/12/15 07:20:30;;;;;;;;;;;0.40;2201.60;;;;;;4753219;30;20001;-58
2021/12/15 07:22:54;;;;;;;;;;;0.50;2201.60;;;;;;4752911;30;19920;-58
2021/12/15 07:25:21;;;;;;;;;;;0.40;2201.60;;;;;;4753129;30;19993;-58
2021/12/15 07:27:47;;;;;;;;;;;0.50;2201.60;;;;;;4752934;30;19910;-58
2021/12/15 07:30:13;;;;;;;;;;;0.50;2201.60;;;;;;4752716;30;20380;-58
2021/12/15 07:32:39;;;;;;;;;;;0.50;2201.60;;;;;;4752997;30;19914;-58
2021/12/15 07:35:05;;;;;;;;;;;0.60;2201.60;;;;;;4752925;30;20008;-58
2021/12/15 07:37:32;;;;;;;;;;;0.70;2201.60;;;;;;4752892;30;19916;-58
2021/12/15 07:39:59;;;;;;;;;;;0.70;2201.60;;;;;;4752777;30;20046;-58
2021/12/15 07:42:55;;;;;;;;;;;0.70;2201.60;;;;;;4753109;30;20276;-59
2021/12/15 07:45:14;;;;;;;;;;;0.60;2201.60;;;;;;4751842;30;20317;-58
2021/12/15 07:47:40;;;;;;;;;;;0.60;2201.60;;;;;;4753368;30;20001;-58
2021/12/15 07:50:07;;;;;;;;;;;0.50;2201.60;;;;;;4756575;30;19969;-60
2021/12/15 07:52:35;;;;;;;;;;;0.60;2201.60;;;;;;4756194;30;19917;-59
2021/12/15 07:55:01;;;;;;;;;;;0.50;2201.60;;;;;;4756206;30;19910;-59
2021/12/15 07:57:29;;;;;;;;;;;0.60;2201.60;;;;;;4756192;30;20376;-58
2021/12/15 07:59:57;;;;;;;;;;;0.70;2201.60;;;;;;4756161;30;19910;-58
2021/12/15 08:02:23;;;;;;;;;;;0.60;2201.60;;;;;;4756113;30;19925;-58
2021/12/15 08:04:48;;;;;;;;;;;0.70;2201.60;;;;;;4756196;30;20300;-58
2021/12/15 08:07:15;;;;;;;;;;;0.70;2201.60;;;;;;4755893;30;19917;-58
2021/12/15 08:09:41;;;;;;;;;;;0.80;2201.60;;;;;;4755901;30;19935;-58
2021/12/15 08:12:07;;;;;;;;;;;0.70;2201.60;;;;;;4755932;30;19910;-58
2021/12/15 08:14:33;;;;;;;;;;;0.70;2201.60;;;;;;4755859;30;19910;-58
2021/12/15 08:16:59;;;;;;;;;;;0.70;2201.60;;;;;;4755914;30;19940;-58
2021/12/15 08:19:25;;;;;;;;;;;0.80;2201.60;;;;;;4755771;30;19916;-59
2021/12/15 08:21:51;;;;;;;;;;;0.80;2201.60;;;;;;4756311;30;19924;-59
2021/12/15 08:24:17;;;;;;;;;;;0.70;2201.60;;;;;;4755654;30;20410;-58
2021/12/15 08:26:43;;;;;;;;;;;0.80;2201.60;;;;;;4755786;30;19934;-58
2021/12/15 08:29:08;;;;;;;;;;;0.80;2201.60;;;;;;4755634;30;19914;-59
2021/12/15 08:31:34;;;;;;;;;;;0.70;2201.60;;;;;;4755381;30;19922;-59
2021/12/15 08:34:00;;;;;;;;;;;0.80;2201.60;;;;;;4755538;30;19960;-58
2021/12/15 08:36:27;;;;;;;;;;;0.80;2201.60;;;;;;4755489;30;19952;-58
2021/12/15 08:38:53;;;;;;;;;;;0.80;2201.60;;;;;;4755457;30;19910;-59
2021/12/15 08:41:23;;;;;;;;;;;0.90;2201.60;;;;;;4755370;30;19918;-58
2021/12/15 08:43:48;;;;;;;;;;;0.90;2201.60;;;;;;4755658;30;19910;-59
2021/12/15 08:46:16;;;;;;;;;;;25.60;2201.60;;;;;;4755394;30;19983;-58
2021/12/15 08:48:42;;;;;;;;;;;25.80;2201.60;;;;;;4755301;30;20338;-58
2021/12/15 08:51:09;;;;;;;;;;;25.80;2201.60;;;;;;4755391;30;19971;-58
2021/12/15 08:53:36;;;;;;;;;;;25.80;2201.60;;;;;;4755288;30;19910;-58
2021/12/15 08:56:02;;;;;;;;;;;25.90;2201.60;;;;;;4755416;30;19933;-58
2021/12/15 08:58:28;;;;;;;;;;;26.20;2201.60;;;;;;4754986;30;19961;-59
2021/12/15 09:00:56;;;;;;;;;;;26.20;2201.60;;;;;;4754272;30;19949;-58
2021/12/15 09:03:22;;;;;;;;;;;26.30;2201.60;;;;;;4755079;30;20356;-59
2021/12/15 09:05:49;;;;;;;;;;;26.40;2201.60;;;;;;4755257;30;19921;-59
2021/12/15 09:08:14;;;;;;;;;;;26.50;2201.60;;;;;;4755191;30;20245;-58
2021/12/15 09:10:43;;;;;;;;;;;51.30;2227.20;;;;;;4754946;30;19917;-58
2021/12/15 09:13:09;;;;;;;;;;;51.20;2227.20;;;;;;4754820;30;20276;-58
2021/12/15 09:15:36;;;;;;;;;;;51.30;2227.20;;;;;;4755119;30;19914;-59
2021/12/15 09:18:02;;;;;;;;;;;51.40;2227.20;;;;;;4754869;30;19916;-57
2021/12/15 09:20:31;;;;;;;;;;;51.40;2227.20;;;;;;4754965;30;19945;-59
2021/12/15 09:22:58;;;;;;;;;;;51.60;2227.20;;;;;;4754934;30;19910;-58
2021/12/15 09:25:24;;;;;;;;;;;51.60;2227.20;;;;;;4754629;30;19910;-58
2021/12/15 09:27:49;;;;;;;;;;;51.80;2227.20;;;;;;4754940;30;19914;-59
2021/12/15 09:30:18;;;;;;;;;;;51.80;2227.20;;;;;;4754224;30;19918;-59
2021/12/15 09:32:43;;;;;;;;;;;51.80;2227.20;;;;;;4754548;30;19963;-58
2021/12/15 09:35:10;;;;;;;;;;;52.00;2227.20;;;;;;4754545;30;19914;-58
2021/12/15 09:37:36;;;;;;;;;;;77.00;2227.20;;;;;;4754384;30;20009;-59
2021/12/15 09:40:06;;;;;;;;;;;77.70;2227.20;;;;;;4754339;30;20001;-59
2021/12/15 09:42:36;;;;;;;;;;;102.80;2227.20;;;;;;4754353;30;19953;-58
2021/12/15 09:45:19;;;;;;;;;;;103.00;2227.20;;;;;;4754353;30;19914;-58
2021/12/15 09:48:05;;;;;;;;;;;103.00;2227.20;;;;;;4754592;30;19910;-59
2021/12/15 10:02:31;;;;;;;;;;;102.70;2227.20;;;;;;4754181;30;20015;-58
2021/12/15 10:04:43;;;;;;;;;;;102.60;2227.20;;;;;;4747041;30;20367;-58
2021/12/15 10:18:27;;;;;;;;;;;102.50;2227.20;;;;;;4753844;30;19959;-58
2021/12/15 10:20:53;;;;;;;;;;;102.50;2227.20;;;;;;4753669;30;19976;-59
2021/12/15 10:23:24;;;;;;;;;;;102.50;2227.20;;;;;;4753695;30;20022;-58
2021/12/15 10:25:53;;;;;;;;;;;102.60;2227.20;;;;;;4758143;30;19909;-58
2021/12/15 10:28:20;;;;;;;;;;;102.70;2227.20;;;;;;4762134;30;19921;-58
2021/12/15 10:30:48;;;;;;;;;;;102.70;2227.20;;;;;;4760718;30;20344;-59
2021/12/15 10:33:15;;;;;;;;;;;102.60;2227.20;;;;;;4760515;30;20001;-59
2021/12/15 10:35:45;;;;;;;;;;;102.50;2227.20;;;;;;4762209;30;19910;-59
2021/12/15 10:38:25;;;;;;;;;;;102.50;2227.20;;;;;;4761850;30;19941;-60
2021/12/15 10:40:56;;;;;;;;;;;102.50;2227.20;;;;;;4761372;30;20016;-58
2021/12/15 10:43:23;;;;;;;;;;;102.40;2227.20;;;;;;4760242;30;19910;-58
2021/12/15 10:45:52;;;;;;;;;;;102.40;2227.20;;;;;;4757200;30;19914;-58
2021/12/15 10:48:36;;;;;;;;;;;77.70;2227.20;;;;;;4760657;30;20379;-59
2021/12/15 10:51:20;;;;;;;;;;;77.40;2227.20;;;;;;4760337;30;20287;-59
2021/12/15 10:53:47;;;;;;;;;;;77.20;2227.20;;;;;;4759903;30;19911;-59
2021/12/15 10:56:17;;;;;;;;;;;77.30;2227.20;;;;;;4761156;30;19910;-59
2021/12/15 10:58:50;;;;;;;;;;;77.30;2227.20;;;;;;4761942;30;20269;-58
2021/12/15 11:01:34;;;;;;;;;;;77.20;2227.20;;;;;;4761142;30;20459;-59
2021/12/15 11:04:00;;;;;;;;;;;77.20;2227.20;;;;;;4761347;30;20356;-58
2021/12/15 11:06:32;;;;;;;;;;;77.20;2227.20;;;;;;4759834;30;19911;-53
2021/12/15 11:09:15;;;;;;;;;;;77.10;2227.20;;;;;;4760670;30;20364;-59
2021/12/15 11:12:00;;;;;;;;;;;77.00;2227.20;;;;;;4761420;30;19914;-59
2021/12/15 11:14:29;;;;;;;;;;;76.90;2227.20;;;;;;4762087;30;19916;-59
2021/12/15 11:17:02;;;;;;;;;;;76.90;2227.20;;;;;;4760657;30;19917;-62
2021/12/15 11:19:37;;;;;;;;;;;76.80;2227.20;;;;;;4759943;30;19910;-60
2021/12/15 11:22:23;;;;;;;;;;;76.80;2227.20;;;;;;4743708;30;20050;-61
2021/12/15 11:24:49;;;;;;;;;;;76.80;2227.20;;;;;;4764376;30;19910;-61
2021/12/15 11:27:15;;;;;;;;;;;76.80;2227.20;;;;;;4765304;30;19916;-60
2021/12/15 11:29:42;;;;;;;;;;;76.80;2227.20;;;;;;4765665;30;19960;-61
2021/12/15 11:32:28;;;;;;;;;;;76.80;2227.20;;;;;;4766254;30;19926;-61
2021/12/15 11:35:20;;;;;;;;;;;76.90;2227.20;;;;;;4765074;30;19910;-60
2021/12/15 11:37:57;;;;;;;;;;;77.00;2227.20;;;;;;4762793;30;20386;-62
2021/12/15 11:40:25;;;;;;;;;;;77.20;2227.20;;;;;;4764451;30;20339;-60
2021/12/15 11:42:51;;;;;;;;;;;77.20;2227.20;;;;;;4765939;30;19909;-63
2021/12/15 11:45:17;;;;;;;;;;;77.30;2227.20;;;;;;4764175;30;20360;-60
2021/12/15 11:47:43;;;;;;;;;;;77.30;2227.20;;;;;;4764878;30;19933;-60
2021/12/15 11:50:14;;;;;;;;;;;77.40;2227.20;;;;;;4765771;30;20336;-60
2021/12/15 11:52:41;;;;;;;;;;;77.50;2227.20;;;;;;4764395;30;19910;-60
2021/12/15 11:55:19;;;;;;;;;;;77.70;2227.20;;;;;;4764061;30;19917;-60
2021/12/15 11:57:45;;;;;;;;;;;77.70;2227.20;;;;;;4764597;30;19981;-59
2021/12/15 12:00:13;;;;;;;;;;;77.50;2227.20;;;;;;4765358;30;20355;-59
2021/12/15 12:02:40;;;;;;;;;;;77.50;2227.20;;;;;;4764030;30;19925;-60
2021/12/15 12:05:13;;;;;;;;;;;77.60;2227.20;;;;;;4764078;30;19917;-60
2021/12/15 12:07:42;;;;;;;;;;;102.40;2227.20;;;;;;4764231;30;20328;-60
2021/12/15 12:10:31;;;;;;;;;;;102.50;2227.20;;;;;;4770911;30;19918;-60
2021/12/15 12:13:14;;;;;;;;;;;77.70;2227.20;;;;;;4765085;30;19967;-59
2021/12/15 12:15:41;;;;;;;;;;;77.70;2227.20;;;;;;4764740;30;19916;-60
2021/12/15 12:18:08;;;;;;;;;;;77.70;2227.20;;;;;;4764839;30;19910;-60
2021/12/15 12:20:36;;;;;;;;;;;77.60;2227.20;;;;;;4763146;30;20356;-60
2021/12/15 12:23:03;;;;;;;;;;;77.50;2227.20;;;;;;4764179;30;20300;-60
2021/12/15 12:25:35;;;;;;;;;;;77.40;2227.20;;;;;;4761710;30;20314;-60
2021/12/15 12:28:01;;;;;;;;;;;77.40;2227.20;;;;;;4768179;30;20379;-60
2021/12/15 12:30:29;;;;;;;;;;;77.20;2227.20;;;;;;4755349;30;19925;-64
2021/12/15 12:32:55;;;;;;;;;;;77.20;2227.20;;;;;;4754694;30;19914;-60
2021/12/15 12:35:24;;;;;;;;;;;77.00;2227.20;;;;;;4753747;30;19941;-60
2021/12/15 12:37:51;;;;;;;;;;;77.00;2227.20;;;;;;4753721;30;19957;-60
2021/12/15 12:40:22;;;;;;;;;;;77.00;2227.20;;;;;;4753725;30;20444;-60
2021/12/15 12:42:48;;;;;;;;;;;77.00;2227.20;;;;;;4738980;30;19961;-60
2021/12/15 12:45:22;;;;;;;;;;;77.00;2227.20;;;;;;4755414;30;19910;-60
2021/12/15 12:48:06;;;;;;;;;;;77.20;2227.20;;;;;;4755652;30;19925;-61
2021/12/15 12:59:28;;;;;;;;;;;77.50;2227.20;;;;;;4755681;30;19917;-60
2021/12/15 13:01:54;;;;;;;;;;;77.50;2227.20;;;;;;4755009;30;20364;-60
2021/12/15 13:04:20;;;;;;;;;;;77.50;2227.20;;;;;;4755368;30;19975;-60
2021/12/15 13:06:46;;;;;;;;;;;77.50;2227.20;;;;;;4755107;30;20360;-63
2021/12/15 13:09:17;;;;;;;;;;;77.50;2227.20;;;;;;4754950;30;19945;-60
2021/12/15 13:11:47;;;;;;;;;;;77.50;2227.20;;;;;;4754950;30;19910;-60
2021/12/15 13:14:12;;;;;;;;;;;77.60;2227.20;;;;;;4754933;30;19916;-63
2021/12/15 13:16:43;;;;;;;;;;;77.50;2227.20;;;;;;4754868;30;19914;-61
2021/12/15 13:19:12;;;;;;;;;;;77.40;2227.20;;;;;;4754776;30;20368;-60
2021/12/15 13:21:49;;;;;;;;;;;77.40;2227.20;;;;;;4754750;30;20012;-60
2021/12/15 13:30:25;;;;;;;;;;;77.50;2227.20;;;;;;4717658;30;19930;-60
2021/12/15 13:32:51;;;;;;;;;;;77.50;2227.20;;;;;;4717549;30;20324;-60
2021/12/15 13:35:27;;;;;;;;;;;77.30;2227.20;;;;;;4717575;30;19911;-60
2021/12/15 13:37:57;;;;;;;;;;;77.30;2227.20;;;;;;4717481;30;19911;-60
2021/12/15 13:40:41;;;;;;;;;;;77.40;2227.20;;;;;;4717354;30;19976;-60
2021/12/15 13:43:27;;;;;;;;;;;77.40;2227.20;;;;;;4717533;30;20388;-60
2021/12/15 13:45:53;;;;;;;;;;;77.50;2227.20;;;;;;4716743;30;19911;-63
2021/12/15 13:48:38;;;;;;;;;;;77.40;2227.20;;;;;;4717316;30;19911;-60
2021/12/15 13:51:04;;;;;;;;;;;77.30;2227.20;;;;;;4717158;30;19915;-63
2021/12/15 13:53:32;;;;;;;;;;;77.30;2227.20;;;;;;4717215;30;20453;-60
2021/12/15 13:55:58;;;;;;;;;;;77.30;2227.20;;;;;;4717247;30;19922;-61
2021/12/15 13:58:24;;;;;;;;;;;77.30;2227.20;;;;;;4717233;30;19911;-61
2021/12/15 14:00:57;;;;;;;;;;;77.40;2227.20;;;;;;4717085;30;19926;-60
2021/12/15 14:03:25;;;;;;;;;;;77.30;2227.20;;;;;;4745250;30;19910;-60
2021/12/15 14:05:55;;;;;;;;;;;77.20;2227.20;;;;;;4754078;30;20357;-60
2021/12/15 14:08:27;;;;;;;;;;;77.20;2227.20;;;;;;4758519;30;19921;-60
2021/12/15 14:10:58;;;;;;;;;;;77.20;2227.20;;;;;;4762844;30;19921;-60
2021/12/15 14:13:36;;;;;;;;;;;77.20;2227.20;;;;;;4763236;30;19910;-61
2021/12/15 14:16:02;;;;;;;;;;;77.10;2227.20;;;;;;4763413;30;19910;-60
2021/12/15 14:18:30;;;;;;;;;;;77.20;2227.20;;;;;;4761672;30;19914;-60
2021/12/15 14:20:56;;;;;;;;;;;77.10;2227.20;;;;;;4759427;30;19920;-60
2021/12/15 14:23:27;;;;;;;;;;;77.20;2227.20;;;;;;4754070;30;20000;-60
2021/12/15 14:25:53;;;;;;;;;;;77.20;2227.20;;;;;;4753708;30;19914;-60
2021/12/15 14:28:21;;;;;;;;;;;77.20;2227.20;;;;;;4737858;30;19976;-60
2021/12/15 14:30:52;;;;;;;;;;;77.20;2227.20;;;;;;4753567;30;20376;-60
2021/12/15 14:33:19;;;;;;;;;;;77.20;2227.20;;;;;;4753839;30;19985;-60
2021/12/15 14:35:45;;;;;;;;;;;77.20;2227.20;;;;;;4762086;30;19971;-60
2021/12/15 14:38:10;;;;;;;;;;;77.20;2227.20;;;;;;4771505;30;19914;-64
2021/12/15 14:40:36;;;;;;;;;;;77.20;2227.20;;;;;;4759148;30;20016;-60
2021/12/15 14:43:02;;;;;;;;;;;77.20;2227.20;;;;;;4753528;30;19948;-62
2021/12/15 14:45:27;;;;;;;;;;;77.10;2227.20;;;;;;4752554;30;20012;-60
2021/12/15 14:47:53;;;;;;;;;;;77.10;2227.20;;;;;;4753756;30;20332;-60
2021/12/15 14:50:19;;;;;;;;;;;77.10;2227.20;;;;;;4753368;30;20340;-60
2021/12/15 14:52:46;;;;;;;;;;;77.00;2227.20;;;;;;4753327;30;19936;-60
2021/12/15 14:55:15;;;;;;;;;;;77.00;2227.20;;;;;;4753923;30;19964;-60
2021/12/15 14:57:41;;;;;;;;;;;77.00;2227.20;;;;;;4753498;30;19993;-60
2021/12/15 15:00:07;;;;;;;;;;;77.10;2227.20;;;;;;4753308;30;19953;-63
2021/12/15 15:02:37;;;;;;;;;;;77.00;2227.20;;;;;;4753398;30;19918;-60
2021/12/15 15:05:08;;;;;;;;;;;77.00;2227.20;;;;;;4753448;30;19910;-60
2021/12/15 15:07:35;;;;;;;;;;;76.90;2227.20;;;;;;4753456;30;19977;-60
2021/12/15 15:10:02;;;;;;;;;;;77.00;2227.20;;;;;;4753401;30;19910;-60
2021/12/15 15:12:30;;;;;;;;;;;77.00;2227.20;;;;;;4753112;30;20291;-61
2021/12/15 15:14:59;;;;;;;;;;;76.90;2227.20;;;;;;4753425;30;19910;-60
2021/12/15 15:17:33;;;;;;;;;;;77.00;2227.20;;;;;;4753316;30;20372;-60
2021/12/15 15:20:10;;;;;;;;;;;77.00;2227.20;;;;;;4753088;30;19999;-60
2021/12/15 15:22:36;;;;;;;;;;;77.10;2227.20;;;;;;4752966;30;19940;-63
2021/12/15 15:25:04;;;;;;;;;;;77.10;2227.20;;;;;;4753324;30;20356;-60
2021/12/15 15:27:30;;;;;;;;;;;77.10;2227.20;;;;;;4752965;30;19918;-61